Terminal Aerodrome Forecast
Issued by NWS Cleveland, OH

Home | Current Version | Previous Version | Text Only | Print | Product List | Glossary On
Versions: 1 2 3 4 5 6 7 8 9 10 11 12 13
000
FTUS41 KCLE 221739
TAFTOL
TAF
KTOL 221739Z 2218/2318 18012G20KT P6SM SCT250
     FM222200 18008KT P6SM BKN150
     FM230700 16006KT P6SM BKN040
     FM231300 14005KT 5SM -SHRA OVC015
     FM231500 11008KT 2SM RA OVC006=

USA.gov is the U.S. government's official web portal to all federal, state and local government web resources and services.